Detall de PIREP

Printer-friendly versionPDF version

[2012/12/07 17:16:00]
Flight IATA:CT3243
Pilot Number:012
Company ICAO:CAT
Aircraft Type:B738/F
PAX:160
Departing Airport: LBSF
Destination Airport: LEPA
Alternate Airport:LEBL
Online: No
Route:NAPET/M080F360 P92 LETNI UT214 PAPIZ UP92 BRD UM603 POKAV UZ347 MINKA UQ182 MALAV/M080F370 UM601 VERSO UL129 LUNIK
Flight Level:F370
No Slew and time accel
No pause
Crash detect
Detect pilot in Cockpit between each 30 and 45 minutes
17:16 Zero fuel Weight: 130485 Lbs, Fuel Weight: 21474 Lbs
17:16 VATSIM:LBSF 071700Z 28003MPS 9999 BKN029 M00/M03 Q1014 NOSIG
17:16 VATSIM:LEPA 071700Z 27009KT 9999 FEW025 14/10 Q1011 NOSIG
17:16 VOICE CATALONIAN
17:18 Parking Brakes off
17:27 Take-off
17:27 Take off Weight: 150905 Lbs
17:27 Wind: 279º @ 006 Knots Heading: 274º
17:27 POS N42º 41´ 50´´ E023º 24´ 43´´
17:27 Gear Up: 163 Knots
17:27 Flaps:3 at 163 Knots
17:27 Flaps:2 at 153 Knots
17:28 Flaps:1 at 177 Knots
17:28 Flaps:0 at 203 Knots
17:42 Wind:313º@075 Knots Heading: 254º Ground Speed: 429 Knots Altitude 29606 ft
17:57 Wind:305º@071 Knots Heading: 256º Ground Speed: 416 Knots Altitude 36010 ft
18:12 Wind:282º@052 Knots Heading: 271º Ground Speed: 411 Knots Altitude 35990 ft
18:27 Wind:295º@067 Knots Heading: 273º Ground Speed: 395 Knots Altitude 35875 ft
18:42 Wind:289º@066 Knots Heading: 287º Ground Speed: 390 Knots Altitude 35895 ft
18:57 Wind:282º@064 Knots Heading: 270º Ground Speed: 395 Knots Altitude 35853 ft
19:02 TOC
19:02 Fuel Weight: 9514 Lb
19:12 Wind:304º@078 Knots Heading: 274º Ground Speed: 390 Knots Altitude 36827 ft
19:27 Wind:295º@053 Knots Heading: 275º Ground Speed: 406 Knots Altitude 36765 ft
19:42 Wind:314º@044 Knots Heading: 279º Ground Speed: 421 Knots Altitude 36899 ft
19:47 TOD
19:47 Fuel Weight: 5513 Lb
19:57 Wind:299º@025 Knots Heading: 181º Ground Speed: 371 Knots Altitude 12372 ft
20:00 Flaps:1 at 240 Knots
20:06 Flaps:2 at 194 Knots
20:06 Flaps:3 at 192 Knots
20:06 Flaps:4 at 189 Knots
20:06 Flaps:5 at 179 Knots
20:07 Gear Down: 181 Knots
20:09 Flaps:6 at 177 Knots
20:11 Flaps:7 at 153 Knots
20:11 Flaps:8 at 142 Knots
20:12 Wind:288º@003 Knots Heading: 239º Ground Speed: 135 Knots Altitude 1653 ft
20:14 TouchDown:Rate -200 ft/min Speed: 121 Knots
20:14 VATSIM:LEPA 072000Z VRB01KT CAVOK 11/09 Q1011 NOSIG
20:14 Land
20:14 Wind:337º@002 Knots
20:14 Heading: 240º
20:14 Flight Duration: 02:47
20:14 Landing Weight: 134098 Lbs
20:14 POS N39º 32´ 56´´ E002º 44´ 53´´
20:17 Parking brakes on
20:17 Block to Block Duration: 02:59
20:17 Final Fuel: 3421 Lbls
20:17 Spent Fuel: 18053 Lbls
20:17 Flight Length: 1056 NM
20:17 TOD Land Length: 130 NM

Exportar CSV

Powered by Drupal - Modified by Danger4k